createdAt,value
2019-03-05T00:01:14.172Z,98422.24
2019-03-05T00:03:40.902Z,98434.98
2019-03-05T00:06:08.031Z,98429.46
2019-03-05T00:08:36.129Z,98449.33
2019-03-05T00:11:03.048Z,98452.22
2019-03-05T00:13:29.626Z,98460.93
2019-03-05T00:15:56.380Z,98462.34
2019-03-05T00:18:23.348Z,98461.13
2019-03-05T00:20:50.017Z,98465.62
2019-03-05T00:23:22.449Z,98474.64
2019-03-05T00:25:49.063Z,98481.84
2019-03-05T00:28:21.663Z,98491.22
2019-03-05T00:30:54.572Z,98486.27
2019-03-05T00:33:25.092Z,98486.52
2019-03-05T00:35:55.568Z,98485.85
2019-03-05T00:38:27.980Z,98504.36
2019-03-05T00:41:00.309Z,98501.96
2019-03-05T00:43:32.943Z,98497.06
2019-03-05T00:46:05.396Z,98511.40
2019-03-05T00:48:35.903Z,98513.11
2019-03-05T00:51:09.536Z,98514.48
2019-03-05T00:53:42.024Z,98507.00
2019-03-05T00:56:14.394Z,98505.58
2019-03-05T00:58:47.517Z,98517.64
2019-03-05T01:01:18.185Z,98526.41
2019-03-05T01:03:50.595Z,98525.86
2019-03-05T01:06:22.951Z,98522.70
2019-03-05T01:08:52.321Z,98526.75
2019-03-05T01:11:21.290Z,98530.56
2019-03-05T01:14:25.564Z,98530.47
2019-03-05T01:16:52.212Z,98533.26
2019-03-05T01:19:18.943Z,98535.65
2019-03-05T01:21:45.570Z,98541.30
2019-03-05T01:24:12.852Z,98539.20
2019-03-05T01:26:39.534Z,98545.53
2019-03-05T01:29:07.416Z,98556.98
2019-03-05T01:31:36.044Z,98552.98
2019-03-05T01:34:05.128Z,98556.45
2019-03-05T01:36:33.725Z,98560.83
2019-03-05T01:39:02.576Z,98577.72
2019-03-05T01:41:31.075Z,98573.61
2019-03-05T01:43:57.633Z,98588.91
2019-03-05T01:46:24.211Z,98586.53
2019-03-05T01:48:50.820Z,98591.28
2019-03-05T01:51:17.349Z,98604.16
2019-03-05T01:53:44.021Z,98606.97
2019-03-05T01:56:10.631Z,98612.89
2019-03-05T01:58:37.351Z,98614.51
2019-03-05T02:01:04.503Z,98614.27
2019-03-05T02:03:32.333Z,98612.29
2019-03-05T02:05:59.087Z,98624.17
2019-03-05T02:08:25.670Z,98626.45
2019-03-05T02:10:52.648Z,98627.73
2019-03-05T02:13:19.582Z,98631.34
2019-03-05T02:15:47.808Z,98631.98
2019-03-05T02:18:18.295Z,98637.29
2019-03-05T02:20:45.102Z,98631.17
2019-03-05T02:23:17.539Z,98633.91
2019-03-05T02:25:49.861Z,98632.18
2019-03-05T02:28:20.308Z,98638.98
2019-03-05T02:30:52.998Z,98635.77
2019-03-05T02:33:23.612Z,98641.88
2019-03-05T02:35:54.123Z,98646.94
2019-03-05T02:38:26.489Z,98646.56
2019-03-05T02:40:58.912Z,98637.94
2019-03-05T02:43:31.235Z,98647.19
2019-03-05T02:46:03.671Z,98647.70
2019-03-05T02:48:34.077Z,98642.47
2019-03-05T02:51:06.449Z,98652.09
2019-03-05T02:53:38.854Z,98650.59
2019-03-05T02:56:11.328Z,98642.05
2019-03-05T02:58:37.915Z,98649.05
2019-03-05T03:01:06.708Z,98655.12
2019-03-05T03:03:35.233Z,98658.59
2019-03-05T03:06:04.019Z,98662.58
2019-03-05T03:08:30.600Z,98657.45
2019-03-05T03:10:57.344Z,98655.75
2019-03-05T03:13:24.344Z,98664.55
2019-03-05T03:15:51.244Z,98660.44
2019-03-05T03:18:17.960Z,98660.03
2019-03-05T03:20:44.650Z,98664.17
2019-03-05T03:23:11.313Z,98673.47
2019-03-05T03:25:37.884Z,98669.27
2019-03-05T03:28:07.307Z,98667.09
2019-03-05T03:30:34.086Z,98665.96
2019-03-05T03:33:00.813Z,98666.34
2019-03-05T03:35:27.639Z,98672.88
2019-03-05T03:37:54.202Z,98682.86
2019-03-05T03:40:22.793Z,98685.44
2019-03-05T03:42:50.048Z,98695.05
2019-03-05T03:45:19.507Z,98685.35
2019-03-05T03:47:46.498Z,98686.55
2019-03-05T03:50:13.417Z,98672.80
2019-03-05T03:52:40.202Z,98693.80
2019-03-05T03:55:11.357Z,98688.55
2019-03-05T03:57:38.163Z,98700.38
2019-03-05T04:00:10.588Z,98693.99
2019-03-05T04:02:37.225Z,98697.65
2019-03-05T04:05:06.911Z,98692.58
2019-03-05T04:07:33.564Z,98694.94
2019-03-05T04:10:03.954Z,98703.01
2019-03-05T04:12:31.646Z,98710.10
2019-03-05T04:15:01.297Z,98705.69
2019-03-05T04:17:27.934Z,98713.20
2019-03-05T04:19:54.499Z,98720.30
2019-03-05T04:22:21.218Z,98713.28
2019-03-05T04:24:47.808Z,98717.95
2019-03-05T04:27:14.400Z,98715.63
2019-03-05T04:29:41.036Z,98698.11
2019-03-05T04:32:07.857Z,98714.71
2019-03-05T04:34:34.422Z,98735.59
2019-03-05T04:37:01.206Z,98734.24
2019-03-05T04:39:27.904Z,98738.22
2019-03-05T04:41:54.624Z,98739.78
2019-03-05T04:44:23.156Z,98729.30
2019-03-05T04:46:50.805Z,98733.52
2019-03-05T04:49:17.448Z,98731.66
2019-03-05T04:51:45.924Z,98742.39
2019-03-05T04:54:12.595Z,98739.62
2019-03-05T04:56:39.311Z,98742.50
2019-03-05T04:59:06.022Z,98749.81
2019-03-05T05:01:32.610Z,98742.30
2019-03-05T05:03:59.200Z,98746.78
2019-03-05T05:06:25.772Z,98751.94
2019-03-05T05:08:52.508Z,98762.22
2019-03-05T05:11:19.118Z,98760.45
2019-03-05T05:13:45.779Z,98763.08
2019-03-05T05:16:12.336Z,98760.84
2019-03-05T05:18:41.992Z,98771.42
2019-03-05T05:21:08.579Z,98770.67
2019-03-05T05:23:35.158Z,98774.86
2019-03-05T05:26:01.723Z,98780.80
2019-03-05T05:28:28.440Z,98782.34
2019-03-05T05:30:55.010Z,98792.59
2019-03-05T05:33:21.724Z,98796.83
2019-03-05T05:35:48.492Z,98791.27
2019-03-05T05:38:15.286Z,98796.59
2019-03-05T05:40:45.925Z,98801.77
2019-03-05T05:43:17.967Z,98808.31
2019-03-05T05:45:49.289Z,98797.28
2019-03-05T05:48:16.469Z,98814.89
2019-03-05T05:50:43.141Z,98816.59
2019-03-05T05:53:09.960Z,98816.47
2019-03-05T05:55:36.860Z,98817.75
2019-03-05T05:58:03.664Z,98804.87
2019-03-05T06:00:30.898Z,98816.38
2019-03-05T06:02:57.531Z,98819.34
2019-03-05T06:05:24.152Z,98821.14
2019-03-05T06:07:50.838Z,98830.01
2019-03-05T06:10:17.649Z,98817.61
2019-03-05T06:12:44.363Z,98823.55
2019-03-05T06:15:13.363Z,98828.17
2019-03-05T06:17:40.026Z,98812.37
2019-03-05T06:20:11.234Z,98824.27
2019-03-05T06:22:38.234Z,98825.54
2019-03-05T06:25:09.544Z,98821.80
2019-03-05T06:27:36.485Z,98821.80
2019-03-05T06:30:08.860Z,98815.22
2019-03-05T06:32:35.533Z,98829.53
2019-03-05T06:35:04.435Z,98816.38
2019-03-05T06:37:32.972Z,98812.22
2019-03-05T06:39:59.527Z,98811.74
2019-03-05T06:42:26.289Z,98826.65
2019-03-05T06:44:52.901Z,98818.52
2019-03-05T06:47:19.567Z,98822.05
2019-03-05T06:49:46.124Z,98823.22
2019-03-05T06:52:12.854Z,98832.01
2019-03-05T06:54:39.536Z,98823.13
2019-03-05T06:57:06.440Z,98822.81
2019-03-05T06:59:33.110Z,98829.69
2019-03-05T07:01:59.672Z,98824.17
2019-03-05T07:04:26.276Z,98833.31
2019-03-05T07:06:54.361Z,98825.67
2019-03-05T07:09:24.755Z,98826.47
2019-03-05T07:11:55.181Z,98825.68
2019-03-05T07:14:27.502Z,98824.63
2019-03-05T07:16:59.982Z,98838.48
2019-03-05T07:19:31.829Z,98829.56
2019-03-05T07:22:04.210Z,98839.99
2019-03-05T07:24:36.541Z,98827.48
2019-03-05T07:27:03.402Z,98836.13
2019-03-05T07:29:30.043Z,98850.06
2019-03-05T07:31:56.622Z,98836.31
2019-03-05T07:34:25.207Z,98844.73
2019-03-05T07:36:51.915Z,98836.47
2019-03-05T07:39:22.402Z,98828.28
2019-03-05T07:41:48.977Z,98838.30
2019-03-05T07:44:15.833Z,98839.39
2019-03-05T07:46:42.514Z,98839.80
2019-03-05T07:50:05.214Z,98844.42
2019-03-05T07:52:31.962Z,98861.83
2019-03-05T07:54:58.623Z,98842.23
2019-03-05T07:57:25.306Z,98840.92
2019-03-05T07:59:52.913Z,98835.28
2019-03-05T08:02:19.629Z,98843.43
2019-03-05T08:04:46.298Z,98857.03
2019-03-05T08:07:13.335Z,98854.87
2019-03-05T08:09:40.083Z,98859.16
2019-03-05T08:12:12.511Z,98851.31
2019-03-05T08:14:42.947Z,98864.34
2019-03-05T08:17:10.782Z,98859.00
2019-03-05T08:19:37.513Z,98855.34
2019-03-05T08:22:08.689Z,98861.53
2019-03-05T08:24:35.632Z,98857.68
2019-03-05T08:27:02.430Z,98856.36
2019-03-05T08:29:29.063Z,98862.30
2019-03-05T08:31:55.977Z,98867.64
2019-03-05T08:34:22.777Z,98878.22
2019-03-05T08:36:49.444Z,98870.34
2019-03-05T08:39:17.294Z,98885.61
2019-03-05T08:41:43.846Z,98867.79
2019-03-05T08:44:10.398Z,98882.62
2019-03-05T08:46:36.999Z,98884.59
2019-03-05T08:49:03.923Z,98889.38
2019-03-05T08:53:57.089Z,98891.15
2019-03-05T08:56:23.754Z,98903.08
2019-03-05T08:58:50.516Z,98896.67
2019-03-05T09:01:17.380Z,98899.66
2019-03-05T09:03:44.033Z,98890.55
2019-03-05T09:06:10.790Z,98907.54
2019-03-05T09:08:38.478Z,98908.66
2019-03-05T09:11:07.536Z,98902.77
2019-03-05T09:13:35.014Z,98903.69
2019-03-05T09:16:01.697Z,98895.36
2019-03-05T09:18:28.271Z,98898.69
2019-03-05T09:20:55.403Z,98901.93
2019-03-05T09:23:22.258Z,98893.94
2019-03-05T09:25:49.935Z,98900.88
2019-03-05T09:28:16.693Z,98902.11
2019-03-05T09:30:43.436Z,98896.20
2019-03-05T09:33:10.016Z,98904.32
2019-03-05T09:35:36.824Z,98895.63
2019-03-05T09:38:03.805Z,98896.70
2019-03-05T09:40:32.163Z,98894.77
2019-03-05T09:43:55.016Z,98890.68
2019-03-05T09:46:21.908Z,98888.03
2019-03-05T09:48:48.649Z,98893.29
2019-03-05T09:51:15.364Z,98903.29
2019-03-05T09:53:42.036Z,98901.94
2019-03-05T09:56:08.709Z,98902.06
2019-03-05T09:58:36.115Z,98901.34
2019-03-05T10:01:03.778Z,98906.98
2019-03-05T10:03:30.708Z,98914.30
2019-03-05T10:05:57.356Z,98922.44
2019-03-05T10:08:31.917Z,98918.47
2019-03-05T10:10:53.157Z,98912.25
2019-03-05T10:13:20.032Z,98915.53
2019-03-05T10:15:46.928Z,98919.94
2019-03-05T10:18:13.847Z,98935.86
2019-03-05T10:20:40.859Z,98927.69
2019-03-05T10:23:07.824Z,98925.11
2019-03-05T10:25:34.488Z,98936.72
2019-03-05T10:28:01.234Z,98916.17
2019-03-05T10:30:32.490Z,98926.05
2019-03-05T10:33:01.604Z,98931.02
2019-03-05T10:35:28.469Z,98933.95
2019-03-05T10:37:58.732Z,98935.66
2019-03-05T10:40:30.654Z,98938.28
2019-03-05T10:43:08.572Z,98942.13
2019-03-05T10:45:30.262Z,98950.86
2019-03-05T10:47:56.974Z,98950.28
2019-03-05T10:50:27.609Z,98944.05
2019-03-05T10:52:55.512Z,98938.92
2019-03-05T10:55:26.317Z,98948.15
2019-03-05T10:57:51.240Z,98967.47
2019-03-05T11:00:24.827Z,98959.59
2019-03-05T11:02:53.915Z,98961.75
2019-03-05T11:05:21.042Z,98970.41
2019-03-05T11:07:47.985Z,98957.52
2019-03-05T11:10:16.469Z,98951.80
2019-03-05T11:12:43.869Z,98958.20
2019-03-05T11:15:17.048Z,98954.91
2019-03-05T11:17:43.926Z,98956.98
2019-03-05T11:20:11.084Z,98969.64
2019-03-05T11:22:37.886Z,98968.33
2019-03-05T11:25:11.284Z,98965.89
2019-03-05T11:27:38.046Z,98963.36
2019-03-05T11:30:10.374Z,98962.69
2019-03-05T11:32:37.435Z,98975.27
2019-03-05T11:35:08.283Z,98966.44
2019-03-05T11:37:34.956Z,98976.94
2019-03-05T11:40:02.228Z,98968.70
2019-03-05T11:42:29.309Z,98985.19
2019-03-05T11:45:07.121Z,98984.81
2019-03-05T11:47:24.670Z,98997.94
2019-03-05T11:49:51.306Z,98998.61
2019-03-05T11:52:17.908Z,98998.42
2019-03-05T11:54:44.683Z,99011.95
2019-03-05T11:57:11.256Z,99009.48
2019-03-05T11:59:37.915Z,99001.77
2019-03-05T12:02:05.095Z,99011.80
2019-03-05T12:04:31.772Z,99017.76
2019-03-05T12:06:58.323Z,99018.20
2019-03-05T12:09:24.891Z,99014.73
2019-03-05T12:11:51.710Z,99019.92
2019-03-05T12:14:18.541Z,99020.05
2019-03-05T12:16:45.197Z,99017.89
2019-03-05T12:19:11.913Z,99017.16
2019-03-05T12:21:39.738Z,99023.03
2019-03-05T12:24:06.437Z,99018.69
2019-03-05T12:26:33.182Z,99012.45
2019-03-05T12:29:00.948Z,99026.91
2019-03-05T12:31:27.567Z,99014.55
2019-03-05T12:33:54.207Z,99037.45
2019-03-05T12:36:20.901Z,99031.27
2019-03-05T12:38:47.523Z,99029.39
2019-03-05T12:41:14.276Z,99035.09
2019-03-05T12:43:41.035Z,99030.22
2019-03-05T12:46:08.104Z,99043.98
2019-03-05T12:48:40.031Z,99044.01
2019-03-05T12:51:03.810Z,99052.45
2019-03-05T12:53:30.479Z,99047.39
2019-03-05T12:55:57.108Z,99050.95
2019-03-05T12:58:25.091Z,99065.83
2019-03-05T13:00:52.406Z,99067.69
2019-03-05T13:03:20.006Z,99065.52
2019-03-05T13:05:46.673Z,99064.19
2019-03-05T13:08:13.337Z,99060.50
2019-03-05T13:10:40.007Z,99061.37
2019-03-05T13:13:10.356Z,99063.03
2019-03-05T13:15:39.348Z,99062.56
2019-03-05T13:18:06.494Z,99054.69
2019-03-05T13:20:33.702Z,99061.52
2019-03-05T13:23:00.377Z,99058.59
2019-03-05T13:25:28.551Z,99057.25
2019-03-05T13:27:57.714Z,99071.23
2019-03-05T13:30:27.766Z,99050.86
2019-03-05T13:32:59.172Z,99065.55
2019-03-05T13:35:25.478Z,99067.27
2019-03-05T13:37:55.823Z,99059.10
2019-03-05T13:40:30.140Z,99070.95
2019-03-05T13:42:57.088Z,99069.08
2019-03-05T13:45:25.268Z,99069.66
2019-03-05T13:47:57.562Z,99078.03
2019-03-05T13:50:28.438Z,99073.19
2019-03-05T13:52:59.003Z,99078.34
2019-03-05T13:55:31.492Z,99083.51
2019-03-05T13:58:01.897Z,99080.84
2019-03-05T14:00:28.836Z,99074.74
2019-03-05T14:03:00.631Z,99072.08
2019-03-05T14:05:32.966Z,99080.73
2019-03-05T14:08:05.317Z,99078.99
2019-03-05T14:10:32.100Z,99078.52
2019-03-05T14:12:58.759Z,99078.61
2019-03-05T14:15:25.804Z,99075.98
2019-03-05T14:17:52.797Z,99080.88
2019-03-05T14:20:19.615Z,99067.50
2019-03-05T14:22:46.299Z,99068.72
2019-03-05T14:25:14.315Z,99074.06
2019-03-05T14:27:42.240Z,99073.48
2019-03-05T14:30:14.249Z,99068.33
2019-03-05T14:32:41.045Z,99072.27
2019-03-05T14:35:11.073Z,99078.11
2019-03-05T14:37:38.265Z,99084.28
2019-03-05T14:40:23.476Z,99083.08
2019-03-05T14:42:39.713Z,99088.20
2019-03-05T14:45:12.069Z,99087.11
2019-03-05T14:47:39.188Z,99084.77
2019-03-05T14:50:07.113Z,99087.59
2019-03-05T14:52:33.907Z,99091.38
2019-03-05T14:55:00.871Z,99087.59
2019-03-05T14:57:27.634Z,99083.66
2019-03-05T14:59:54.326Z,99085.22
2019-03-05T15:02:20.991Z,99093.77
2019-03-05T15:04:47.556Z,99091.98
2019-03-05T15:07:14.201Z,99093.55
2019-03-05T15:09:40.859Z,99083.79
2019-03-05T15:12:07.809Z,99099.16
2019-03-05T15:14:34.678Z,99103.48
2019-03-05T15:17:01.414Z,99102.36
2019-03-05T15:19:28.012Z,99104.91
2019-03-05T15:21:54.621Z,99112.17
2019-03-05T15:24:21.168Z,99111.18
2019-03-05T15:26:47.775Z,99109.33
2019-03-05T15:29:14.474Z,99114.31
2019-03-05T15:31:41.349Z,99109.73
2019-03-05T15:34:08.339Z,99115.09
2019-03-05T15:36:35.023Z,99109.23
2019-03-05T15:39:05.399Z,99121.17
2019-03-05T15:41:33.963Z,99124.27
2019-03-05T15:44:00.762Z,99130.85
2019-03-05T15:46:27.485Z,99134.40
2019-03-05T15:48:54.248Z,99121.97
2019-03-05T15:51:21.121Z,99132.05
2019-03-05T15:56:14.454Z,99134.13
2019-03-05T15:58:41.016Z,99137.69
2019-03-05T16:01:09.917Z,99138.17
2019-03-05T16:03:36.884Z,99129.05
2019-03-05T16:06:03.775Z,99135.69
2019-03-05T16:08:32.637Z,99131.02
2019-03-05T16:10:59.395Z,99141.22
2019-03-05T16:13:26.101Z,99145.42
2019-03-05T16:15:53.055Z,99138.56
2019-03-05T16:18:19.607Z,99144.05
2019-03-05T16:20:46.286Z,99145.88
2019-03-05T16:23:12.897Z,99151.53
2019-03-05T16:25:40.283Z,99157.86
2019-03-05T16:28:07.537Z,99171.80
2019-03-05T16:30:36.419Z,99167.66
2019-03-05T16:33:06.209Z,99185.11
2019-03-05T16:35:34.787Z,99204.12
2019-03-05T16:38:03.332Z,99232.73
2019-03-05T16:40:32.909Z,99253.53
2019-03-05T16:43:01.501Z,99256.20
2019-03-05T16:45:30.128Z,99256.23
2019-03-05T16:47:58.688Z,99251.91
2019-03-05T16:50:27.271Z,99258.73
2019-03-05T16:52:55.979Z,99257.81
2019-03-05T16:55:24.648Z,99251.75
2019-03-05T16:57:53.352Z,99245.64
2019-03-05T17:00:22.122Z,99249.13
2019-03-05T17:02:50.834Z,99262.15
2019-03-05T17:05:23.643Z,99259.45
2019-03-05T17:07:52.521Z,99255.05
2019-03-05T17:10:21.508Z,99255.88
2019-03-05T17:12:48.389Z,99278.05
2019-03-05T17:15:16.058Z,99281.56
2019-03-05T17:17:42.899Z,99288.74
2019-03-05T17:20:10.750Z,99286.67
2019-03-05T17:22:38.027Z,99288.25
2019-03-05T17:25:10.525Z,99296.20
2019-03-05T17:27:37.912Z,99296.12
2019-03-05T17:30:10.276Z,99299.44
2019-03-05T17:32:37.161Z,99304.30
2019-03-05T17:35:05.463Z,99308.49
2019-03-05T17:37:32.302Z,99315.91
2019-03-05T17:39:59.510Z,99310.41
2019-03-05T17:42:26.540Z,99330.84
2019-03-05T17:44:53.400Z,99321.02
2019-03-05T17:47:20.299Z,99325.90
2019-03-05T17:49:46.957Z,99329.36
2019-03-05T17:52:13.761Z,99334.70
2019-03-05T17:54:40.538Z,99335.45
2019-03-05T17:57:08.957Z,99334.98
2019-03-05T17:59:37.310Z,99346.40
2019-03-05T18:02:04.148Z,99353.81
2019-03-05T18:04:31.365Z,99356.83
2019-03-05T18:06:58.675Z,99353.19
2019-03-05T18:09:25.930Z,99355.22
2019-03-05T18:11:52.790Z,99357.25
2019-03-05T18:14:19.569Z,99362.97
2019-03-05T18:16:46.481Z,99362.53
2019-03-05T18:20:09.604Z,99371.05
2019-03-05T18:22:36.487Z,99367.14
2019-03-05T18:25:08.981Z,99384.36
2019-03-05T18:27:37.111Z,99378.70
2019-03-05T18:30:09.521Z,99381.16
2019-03-05T18:32:36.591Z,99379.03
2019-03-05T18:35:07.068Z,99388.88
2019-03-05T18:37:34.497Z,99391.67
2019-03-05T18:40:01.486Z,99395.34
2019-03-05T18:42:29.492Z,99398.66
2019-03-05T18:44:56.773Z,99399.69
2019-03-05T18:47:24.075Z,99395.17
2019-03-05T18:49:52.162Z,99402.06
2019-03-05T18:52:21.013Z,99407.11
2019-03-05T18:54:48.518Z,99409.71
2019-03-05T18:57:15.591Z,99408.94
2019-03-05T18:59:45.739Z,99404.62
2019-03-05T19:02:13.005Z,99408.22
2019-03-05T19:04:40.017Z,99411.29
2019-03-05T19:07:09.934Z,99415.06
2019-03-05T19:09:37.440Z,99407.18
2019-03-05T19:12:04.463Z,99409.31
2019-03-05T19:14:31.305Z,99412.59
2019-03-05T19:16:58.010Z,99409.86
2019-03-05T19:19:28.529Z,99418.73
2019-03-05T19:21:55.377Z,99425.82
2019-03-05T19:24:22.054Z,99418.42
2019-03-05T19:26:48.724Z,99420.70
2019-03-05T19:29:15.751Z,99425.62
2019-03-05T19:31:42.590Z,99426.74
2019-03-05T19:34:09.350Z,99435.05
2019-03-05T19:36:36.165Z,99430.25
2019-03-05T19:39:04.956Z,99427.23
2019-03-05T19:41:33.680Z,99433.17
2019-03-05T19:44:00.664Z,99444.06
2019-03-05T19:46:27.372Z,99444.02
2019-03-05T19:48:55.141Z,99445.44
2019-03-05T19:51:22.078Z,99444.69
2019-03-05T19:53:48.967Z,99440.71
2019-03-05T19:56:15.836Z,99443.33
2019-03-05T19:58:42.855Z,99446.40
2019-03-05T20:01:11.460Z,99446.00
2019-03-05T20:03:38.313Z,99447.66
2019-03-05T20:06:06.205Z,99451.70
2019-03-05T20:08:39.923Z,99445.28
2019-03-05T20:11:03.013Z,99457.66
2019-03-05T20:13:30.106Z,99466.55
2019-03-05T20:15:57.059Z,99468.85
2019-03-05T20:18:23.829Z,99477.80
2019-03-05T20:20:50.601Z,99476.16
2019-03-05T20:23:17.512Z,99476.89
2019-03-05T20:25:44.578Z,99475.25
2019-03-05T20:28:11.371Z,99473.77
2019-03-05T20:30:38.815Z,99474.54
2019-03-05T20:33:06.240Z,99476.33
2019-03-05T20:35:33.058Z,99484.38
2019-03-05T20:38:04.066Z,99484.04
2019-03-05T20:40:31.260Z,99489.41
2019-03-05T20:43:00.959Z,99483.50
2019-03-05T20:45:32.386Z,99485.16
2019-03-05T20:47:59.445Z,99480.94
2019-03-05T20:50:27.082Z,99490.48
2019-03-05T20:52:54.105Z,99492.47
2019-03-05T20:55:59.019Z,99488.20
2019-03-05T20:58:26.387Z,99482.77
2019-03-05T21:00:53.511Z,99495.17
2019-03-05T21:03:20.252Z,99506.09
2019-03-05T21:05:47.679Z,99524.55
2019-03-05T21:08:15.017Z,99530.45
2019-03-05T21:10:43.258Z,99541.11
2019-03-05T21:13:11.159Z,99533.42
2019-03-05T21:15:38.262Z,99537.25
2019-03-05T21:18:08.977Z,99536.66
2019-03-05T21:20:36.274Z,99542.13
2019-03-05T21:23:04.661Z,99538.41
2019-03-05T21:25:32.327Z,99547.86
2019-03-05T21:27:59.162Z,99542.38
2019-03-05T21:30:27.694Z,99555.32
2019-03-05T21:32:54.613Z,99549.94
2019-03-05T21:35:21.829Z,99549.02
2019-03-05T21:37:48.716Z,99547.61
2019-03-05T21:40:20.261Z,99560.61
2019-03-05T21:42:47.339Z,99557.61
2019-03-05T21:45:19.798Z,99556.88
2019-03-05T21:47:46.390Z,99569.94
2019-03-05T21:50:14.316Z,99565.28
2019-03-05T21:52:41.212Z,99571.53
2019-03-05T21:55:12.804Z,99575.23
2019-03-05T21:57:39.773Z,99579.81
2019-03-05T22:00:11.932Z,99576.86
2019-03-05T22:02:38.993Z,99586.52
2019-03-05T22:05:07.389Z,99586.39
2019-03-05T22:07:34.789Z,99594.58
2019-03-05T22:10:01.757Z,99589.87
2019-03-05T22:12:29.167Z,99594.00
2019-03-05T22:14:55.954Z,99599.35
2019-03-05T22:17:22.624Z,99605.59
2019-03-05T22:19:49.295Z,99606.31
2019-03-05T22:22:15.899Z,99611.95
2019-03-05T22:24:42.571Z,99616.14
2019-03-05T22:27:09.276Z,99621.44
2019-03-05T22:29:35.872Z,99620.72
2019-03-05T22:32:02.974Z,99615.98
2019-03-05T22:34:29.766Z,99615.92
2019-03-05T22:36:56.615Z,99609.69
2019-03-05T22:39:23.872Z,99611.16
2019-03-05T22:41:50.645Z,99617.16
2019-03-05T22:44:17.534Z,99619.47
2019-03-05T22:46:44.468Z,99634.44
2019-03-05T22:49:11.240Z,99628.15
2019-03-05T22:51:38.197Z,99632.94
2019-03-05T22:54:04.984Z,99629.92
2019-03-05T22:56:31.646Z,99632.23
2019-03-05T22:58:58.298Z,99642.91
2019-03-05T23:01:30.760Z,99635.51
2019-03-05T23:03:59.199Z,99638.53
2019-03-05T23:06:26.475Z,99633.55
2019-03-05T23:08:53.519Z,99639.60
2019-03-05T23:11:20.307Z,99640.02
2019-03-05T23:13:48.199Z,99641.13
2019-03-05T23:16:14.890Z,99644.29
2019-03-05T23:18:41.699Z,99645.47
2019-03-05T23:21:08.776Z,99652.07
2019-03-05T23:24:32.036Z,99661.27
2019-03-05T23:26:58.941Z,99653.00
2019-03-05T23:29:27.608Z,99662.61
2019-03-05T23:31:54.628Z,99662.30
2019-03-05T23:34:21.785Z,99669.00
2019-03-05T23:36:48.567Z,99671.28
2019-03-05T23:39:16.138Z,99671.39
2019-03-05T23:41:42.992Z,99678.11
2019-03-05T23:44:10.120Z,99680.72
2019-03-05T23:46:36.670Z,99681.61
2019-03-05T23:49:59.778Z,99689.94
2019-03-05T23:52:26.590Z,99702.00
2019-03-05T23:54:53.173Z,99709.60
2019-03-05T23:57:19.733Z,99702.36
2019-03-05T23:59:46.507Z,99698.72
